createdAt,value
2022-07-25T00:00:00.728Z,13.70
2022-07-25T00:02:30.529Z,12.40
2022-07-25T00:04:59.349Z,16.30
2022-07-25T00:07:28.404Z,13.60
2022-07-25T00:09:57.302Z,14.05
2022-07-25T00:12:26.025Z,15.08
2022-07-25T00:14:54.740Z,16.80
2022-07-25T00:17:23.986Z,15.88
2022-07-25T00:19:53.170Z,15.05
2022-07-25T00:22:21.793Z,15.32
2022-07-25T00:24:50.612Z,12.70
2022-07-25T00:27:19.329Z,13.48
2022-07-25T00:29:48.070Z,13.43
2022-07-25T00:32:20.010Z,17.23
2022-07-25T00:34:52.973Z,14.53
2022-07-25T00:37:21.698Z,11.83
2022-07-25T00:39:50.324Z,15.10
2022-07-25T00:42:18.985Z,13.32
2022-07-25T00:44:47.595Z,10.78
2022-07-25T00:47:16.280Z,14.83
2022-07-25T00:49:45.001Z,17.50
2022-07-25T00:52:14.047Z,14.60
2022-07-25T00:54:42.842Z,14.73
2022-07-25T00:57:13.385Z,16.60
2022-07-25T00:59:42.390Z,14.00
2022-07-25T01:02:11.313Z,10.35
2022-07-25T01:04:40.228Z,14.68
2022-07-25T01:07:08.837Z,12.25
2022-07-25T01:09:38.654Z,12.07
2022-07-25T01:12:09.091Z,11.95
2022-07-25T01:14:42.138Z,15.43
2022-07-25T01:17:12.494Z,13.68
2022-07-25T01:19:41.189Z,11.97
2022-07-25T01:22:10.001Z,12.33
2022-07-25T01:24:40.156Z,12.90
2022-07-25T01:27:08.877Z,17.55
2022-07-25T01:29:39.484Z,11.95
2022-07-25T01:32:10.507Z,14.23
2022-07-25T01:34:39.231Z,15.50
2022-07-25T01:37:09.596Z,12.45
2022-07-25T01:39:38.313Z,17.77
2022-07-25T01:42:07.704Z,17.02
2022-07-25T01:44:36.318Z,11.15
2022-07-25T01:47:05.197Z,12.07
2022-07-25T01:49:34.744Z,13.25
2022-07-25T01:52:03.461Z,18.35
2022-07-25T01:54:32.468Z,14.13
2022-07-25T01:57:01.087Z,14.80
2022-07-25T01:59:37.272Z,17.87
2022-07-25T02:02:06.786Z,16.77
2022-07-25T02:04:36.767Z,15.55
2022-07-25T02:07:05.850Z,17.90
2022-07-25T02:09:35.175Z,11.88
2022-07-25T02:12:03.929Z,15.05
2022-07-25T02:14:32.992Z,14.90
2022-07-25T02:17:02.773Z,17.85
2022-07-25T02:19:31.401Z,16.45
2022-07-25T02:22:01.569Z,19.95
2022-07-25T02:24:30.283Z,16.52
2022-07-25T02:26:59.088Z,13.68
2022-07-25T02:29:28.120Z,15.13
2022-07-25T02:31:56.833Z,16.07
2022-07-25T02:34:25.557Z,15.48
2022-07-25T02:36:54.366Z,22.45
2022-07-25T02:39:23.054Z,15.03
2022-07-25T02:41:51.799Z,14.47
2022-07-25T02:44:20.431Z,15.10
2022-07-25T02:46:49.309Z,13.08
2022-07-25T02:49:18.132Z,14.15
2022-07-25T02:51:46.805Z,14.87
2022-07-25T02:54:16.086Z,16.60
2022-07-25T02:59:55.559Z,17.20
2022-07-25T03:02:24.416Z,12.25
2022-07-25T03:04:53.585Z,18.00
2022-07-25T03:07:22.296Z,15.32
2022-07-25T03:09:50.915Z,16.20
2022-07-25T03:12:22.009Z,14.63
2022-07-25T03:14:55.115Z,15.13
2022-07-25T03:17:23.702Z,13.53
2022-07-25T03:19:52.580Z,13.43
2022-07-25T03:22:23.186Z,15.53
2022-07-25T03:24:56.909Z,13.43
2022-07-25T03:27:25.599Z,17.52
2022-07-25T03:29:54.613Z,17.50
2022-07-25T03:32:23.364Z,17.65
2022-07-25T03:34:51.993Z,12.73
2022-07-25T03:37:22.243Z,14.47
2022-07-25T03:39:50.915Z,14.07
2022-07-25T03:42:24.974Z,11.65
2022-07-25T03:44:53.510Z,17.48
2022-07-25T03:47:22.063Z,12.30
2022-07-25T03:49:52.211Z,16.02
2022-07-25T03:52:20.916Z,16.25
2022-07-25T03:54:49.523Z,14.53
2022-07-25T03:57:18.124Z,13.10
2022-07-25T03:59:46.747Z,11.95
2022-07-25T04:02:15.436Z,14.23
2022-07-25T04:04:44.025Z,11.30
2022-07-25T04:07:12.610Z,15.45
2022-07-25T04:09:42.396Z,11.95
2022-07-25T04:12:11.093Z,11.53
2022-07-25T04:14:40.167Z,15.30
2022-07-25T04:17:08.889Z,11.78
2022-07-25T04:19:38.470Z,14.28
2022-07-25T04:22:07.090Z,11.73
2022-07-25T04:24:35.846Z,14.30
2022-07-25T04:27:04.800Z,16.67
2022-07-25T04:29:33.470Z,11.30
2022-07-25T04:32:02.190Z,15.75
2022-07-25T04:34:31.097Z,18.48
2022-07-25T04:36:59.829Z,12.53
2022-07-25T04:39:30.375Z,15.98
2022-07-25T04:42:28.666Z,14.07
2022-07-25T04:44:36.429Z,12.73
2022-07-25T04:47:05.622Z,12.85
2022-07-25T04:49:34.357Z,10.58
2022-07-25T04:52:02.993Z,12.68
2022-07-25T04:54:31.626Z,12.60
2022-07-25T04:57:00.371Z,13.10
2022-07-25T04:59:30.566Z,10.08
2022-07-25T05:02:00.423Z,11.33
2022-07-25T05:04:29.126Z,12.20
2022-07-25T05:06:59.311Z,12.47
2022-07-25T05:09:28.900Z,10.55
2022-07-25T05:11:57.451Z,12.90
2022-07-25T05:14:26.132Z,13.68
2022-07-25T05:16:55.204Z,9.95
2022-07-25T05:19:26.996Z,10.58
2022-07-25T05:21:55.566Z,10.55
2022-07-25T05:24:24.895Z,13.98
2022-07-25T05:26:53.512Z,10.65
2022-07-25T05:29:22.236Z,12.25
2022-07-25T05:31:52.581Z,10.72
2022-07-25T05:34:21.339Z,18.02
2022-07-25T05:36:50.051Z,11.25
2022-07-25T05:39:18.689Z,13.45
2022-07-25T05:41:47.462Z,13.45
2022-07-25T05:44:16.133Z,10.20
2022-07-25T05:46:44.907Z,11.00
2022-07-25T05:49:13.611Z,14.68
2022-07-25T05:51:42.354Z,13.38
2022-07-25T05:54:11.083Z,9.98
2022-07-25T05:56:42.465Z,11.20
2022-07-25T05:59:11.159Z,9.63
2022-07-25T06:01:40.013Z,10.35
2022-07-25T06:04:09.097Z,13.50
2022-07-25T06:06:38.044Z,8.55
2022-07-25T06:09:08.065Z,12.68
2022-07-25T06:11:36.803Z,13.05
2022-07-25T06:14:07.474Z,13.75
2022-07-25T06:16:37.608Z,13.10
2022-07-25T06:19:06.300Z,13.38
2022-07-25T06:21:35.199Z,11.18
2022-07-25T06:24:04.781Z,14.78
2022-07-25T06:26:33.732Z,12.30
2022-07-25T06:29:02.692Z,10.65
2022-07-25T06:31:32.508Z,12.00
2022-07-25T06:34:02.401Z,8.58
2022-07-25T06:36:32.330Z,12.98
2022-07-25T06:39:02.160Z,14.58
2022-07-25T06:41:30.729Z,12.00
2022-07-25T06:43:59.410Z,11.30
2022-07-25T06:46:29.759Z,10.03
2022-07-25T06:48:59.344Z,10.72
2022-07-25T06:51:28.114Z,12.20
2022-07-25T06:53:56.866Z,14.55
2022-07-25T06:56:25.914Z,13.83
2022-07-25T06:58:55.950Z,13.32
2022-07-25T07:01:24.862Z,12.45
2022-07-25T07:03:53.961Z,13.28
2022-07-25T07:06:23.411Z,12.25
2022-07-25T07:08:53.850Z,11.90
2022-07-25T07:11:22.803Z,9.75
2022-07-25T07:13:51.956Z,12.65
2022-07-25T07:16:20.720Z,16.23
2022-07-25T07:18:49.729Z,15.80
2022-07-25T07:21:21.561Z,18.62
2022-07-25T07:23:49.267Z,10.58
2022-07-25T07:26:21.266Z,8.95
2022-07-25T07:28:50.183Z,10.35
2022-07-25T07:31:19.641Z,12.70
2022-07-25T07:33:48.613Z,9.85
2022-07-25T07:36:17.594Z,13.75
2022-07-25T07:38:46.788Z,12.25
2022-07-25T07:41:16.327Z,12.47
2022-07-25T07:43:44.958Z,13.08
2022-07-25T07:46:14.235Z,11.28
2022-07-25T07:48:43.571Z,10.63
2022-07-25T07:51:12.177Z,14.80
2022-07-25T07:53:58.619Z,11.57
2022-07-25T07:56:27.508Z,13.30
2022-07-25T07:58:56.187Z,12.43
2022-07-25T08:01:26.045Z,11.45
2022-07-25T08:03:55.084Z,9.48
2022-07-25T08:06:23.832Z,13.72
2022-07-25T08:08:52.585Z,9.55
2022-07-25T08:11:21.364Z,9.65
2022-07-25T08:13:50.138Z,12.15
2022-07-25T08:16:19.551Z,12.68
2022-07-25T08:18:48.352Z,12.78
2022-07-25T08:21:17.025Z,8.60
2022-07-25T08:23:47.249Z,11.25
2022-07-25T08:26:15.981Z,19.12
2022-07-25T08:28:46.540Z,10.20
2022-07-25T08:31:16.047Z,11.80
2022-07-25T08:33:44.697Z,10.25
2022-07-25T08:36:13.381Z,14.58
2022-07-25T08:38:42.152Z,10.48
2022-07-25T08:41:10.736Z,9.58
2022-07-25T08:43:40.139Z,9.30
2022-07-25T08:46:10.298Z,10.25
2022-07-25T08:48:40.583Z,8.38
2022-07-25T08:51:10.672Z,12.75
2022-07-25T08:53:39.555Z,9.40
2022-07-25T08:56:14.570Z,12.60
2022-07-25T08:58:40.893Z,8.00
2022-07-25T09:01:09.988Z,10.98
2022-07-25T09:03:40.734Z,8.18
2022-07-25T09:06:21.071Z,11.63
2022-07-25T09:08:58.754Z,13.13
2022-07-25T09:11:33.118Z,11.45
2022-07-25T09:14:08.801Z,10.30
2022-07-25T09:16:43.280Z,8.53
2022-07-25T09:19:16.092Z,10.23
2022-07-25T09:21:47.762Z,10.03
2022-07-25T09:24:21.438Z,10.45
2022-07-25T09:26:52.451Z,10.53
2022-07-25T09:29:27.868Z,11.90
2022-07-25T09:31:57.594Z,10.30
2022-07-25T09:34:40.767Z,10.50
2022-07-25T09:37:12.628Z,8.80
2022-07-25T09:39:50.425Z,13.32
2022-07-25T09:42:27.820Z,11.00
2022-07-25T09:45:04.835Z,11.08
2022-07-25T09:47:35.886Z,11.33
2022-07-25T09:50:05.189Z,7.40
2022-07-25T09:52:33.994Z,10.43
2022-07-25T09:55:06.019Z,11.85
2022-07-25T09:57:34.860Z,9.33
2022-07-25T10:00:03.826Z,13.50
2022-07-25T10:02:45.871Z,8.88
2022-07-25T10:05:36.763Z,9.18
2022-07-25T10:08:08.771Z,10.48
2022-07-25T10:10:42.860Z,11.85
2022-07-25T10:13:15.423Z,13.58
2022-07-25T10:15:54.637Z,9.10
2022-07-25T10:18:25.811Z,8.05
2022-07-25T10:21:17.795Z,9.98
2022-07-25T10:23:33.885Z,10.28
2022-07-25T10:26:12.640Z,8.88
2022-07-25T10:28:45.447Z,10.05
2022-07-25T10:31:24.349Z,10.13
2022-07-25T10:33:55.295Z,8.20
2022-07-25T10:36:25.327Z,7.03
2022-07-25T10:39:00.460Z,6.95
2022-07-25T10:41:31.828Z,10.82
2022-07-25T10:44:03.516Z,6.92
2022-07-25T10:46:35.505Z,7.85
2022-07-25T10:49:08.156Z,9.70
2022-07-25T10:51:42.187Z,7.40
2022-07-25T10:54:17.089Z,6.60
2022-07-25T10:56:58.128Z,5.85
2022-07-25T10:59:31.167Z,6.87
2022-07-25T11:02:00.419Z,9.85
2022-07-25T11:04:29.133Z,7.72
2022-07-25T11:06:58.043Z,8.80
2022-07-25T11:09:29.347Z,9.23
2022-07-25T11:12:01.307Z,5.37
2022-07-25T11:14:40.532Z,8.55
2022-07-25T11:17:24.436Z,8.23
2022-07-25T11:19:58.737Z,9.48
2022-07-25T11:22:29.194Z,7.50
2022-07-25T11:24:59.125Z,6.65
2022-07-25T11:27:30.997Z,7.12
2022-07-25T11:30:17.309Z,6.50
2022-07-25T11:32:52.088Z,6.67
2022-07-25T11:35:26.742Z,6.55
2022-07-25T11:37:56.828Z,5.60
2022-07-25T11:40:26.602Z,7.15
2022-07-25T11:42:59.714Z,8.00
2022-07-25T11:45:34.013Z,5.65
2022-07-25T11:48:14.662Z,9.35
2022-07-25T11:50:45.739Z,7.75
2022-07-25T11:53:17.963Z,7.62
2022-07-25T11:55:50.399Z,6.50
2022-07-25T11:58:19.529Z,6.58
2022-07-25T12:00:53.027Z,7.40
2022-07-25T12:03:26.956Z,7.58
2022-07-25T12:05:56.857Z,8.25
2022-07-25T12:08:27.060Z,11.33
2022-07-25T12:10:56.336Z,6.50
2022-07-25T12:13:26.826Z,7.65
2022-07-25T12:15:57.187Z,8.65
2022-07-25T12:18:30.091Z,7.95
2022-07-25T12:20:59.526Z,6.87
2022-07-25T12:23:31.144Z,7.12
2022-07-25T12:25:59.925Z,9.38
2022-07-25T12:28:28.575Z,7.83
2022-07-25T12:31:02.131Z,10.60
2022-07-25T12:33:32.819Z,7.03
2022-07-25T12:36:08.039Z,15.28
2022-07-25T12:38:35.258Z,9.00
2022-07-25T12:41:04.715Z,10.98
2022-07-25T12:43:34.604Z,8.73
2022-07-25T12:46:06.152Z,9.88
2022-07-25T12:48:39.140Z,9.28
2022-07-25T12:51:08.355Z,7.75
2022-07-25T12:53:42.292Z,8.35
2022-07-25T12:56:09.444Z,7.65
2022-07-25T12:58:51.859Z,6.55
2022-07-25T13:01:21.101Z,7.50
2022-07-25T13:03:55.329Z,6.15
2022-07-25T13:06:24.053Z,6.45
2022-07-25T13:09:01.484Z,8.55
2022-07-25T13:11:34.715Z,7.60
2022-07-25T13:14:03.756Z,7.75
2022-07-25T13:16:34.578Z,6.53
2022-07-25T13:19:06.221Z,9.98
2022-07-25T13:21:37.218Z,6.62
2022-07-25T13:24:12.769Z,7.08
2022-07-25T13:29:48.793Z,7.87
2022-07-25T13:32:18.271Z,8.68
2022-07-25T13:34:51.670Z,7.87
2022-07-25T13:37:38.783Z,6.60
2022-07-25T13:40:10.843Z,5.67
2022-07-25T13:42:48.022Z,6.40
2022-07-25T13:45:24.257Z,5.62
2022-07-25T13:48:30.815Z,6.40
2022-07-25T13:50:45.702Z,6.28
2022-07-25T13:53:18.584Z,8.15
2022-07-25T13:55:49.006Z,5.95
2022-07-25T13:58:26.838Z,5.90
2022-07-25T14:00:58.385Z,6.85
2022-07-25T14:03:35.932Z,7.95
2022-07-25T14:06:11.686Z,11.00
2022-07-25T14:08:48.578Z,7.15
2022-07-25T14:11:39.591Z,7.05
2022-07-25T14:17:10.944Z,6.83
2022-07-25T14:19:46.081Z,6.92
2022-07-25T14:22:21.542Z,6.20
2022-07-25T14:24:57.195Z,6.85
2022-07-25T14:27:28.905Z,10.82
2022-07-25T14:30:04.789Z,6.83
2022-07-25T14:32:33.865Z,8.40
2022-07-25T14:35:03.036Z,9.13
2022-07-25T14:37:31.665Z,9.08
2022-07-25T14:40:00.722Z,7.62
2022-07-25T14:42:32.937Z,6.90
2022-07-25T14:45:03.258Z,8.80
2022-07-25T14:47:37.330Z,11.15
2022-07-25T14:50:07.177Z,6.58
2022-07-25T14:52:38.962Z,7.50
2022-07-25T14:55:12.884Z,5.42
2022-07-25T14:57:44.586Z,6.00
2022-07-25T15:00:14.282Z,6.55
2022-07-25T15:02:46.076Z,8.00
2022-07-25T15:05:19.083Z,7.83
2022-07-25T15:07:55.243Z,8.23
2022-07-25T15:10:27.121Z,8.38
2022-07-25T15:13:20.438Z,9.73
2022-07-25T15:15:26.423Z,7.70
2022-07-25T15:17:55.824Z,7.20
2022-07-25T15:23:56.977Z,8.35
2022-07-25T15:26:27.919Z,11.93
2022-07-25T15:28:56.758Z,8.78
2022-07-25T15:31:27.822Z,7.50
2022-07-25T15:33:56.580Z,7.85
2022-07-25T15:36:29.727Z,7.08
2022-07-25T15:39:01.796Z,9.00
2022-07-25T15:41:35.544Z,8.83
2022-07-25T15:44:03.627Z,7.67
2022-07-25T15:46:33.085Z,7.12
2022-07-25T15:49:02.640Z,8.58
2022-07-25T15:51:31.497Z,9.75
2022-07-25T15:54:01.655Z,6.90
2022-07-25T15:56:30.365Z,9.23
2022-07-25T15:59:02.356Z,8.55
2022-07-25T16:01:31.101Z,7.95
2022-07-25T16:04:01.144Z,7.58
2022-07-25T16:06:30.007Z,8.60
2022-07-25T16:08:58.719Z,11.00
2022-07-25T16:11:27.805Z,8.33
2022-07-25T16:13:58.171Z,11.35
2022-07-25T16:16:29.936Z,10.35
2022-07-25T16:19:01.163Z,10.32
2022-07-25T16:21:30.241Z,10.78
2022-07-25T16:23:59.951Z,7.75
2022-07-25T16:26:40.458Z,10.45
2022-07-25T16:29:16.758Z,9.23
2022-07-25T16:31:48.933Z,10.85
2022-07-25T16:34:19.144Z,10.88
2022-07-25T16:36:48.112Z,8.88
2022-07-25T16:39:43.476Z,8.50
2022-07-25T16:45:43.488Z,12.07
2022-07-25T16:48:31.153Z,11.12
2022-07-25T16:51:03.166Z,12.03
2022-07-25T16:53:32.884Z,12.03
2022-07-25T16:56:10.988Z,9.10
2022-07-25T16:58:51.728Z,13.25
2022-07-25T17:01:22.074Z,13.85
2022-07-25T17:03:52.589Z,15.88
2022-07-25T17:06:39.558Z,10.28
2022-07-25T17:09:13.325Z,9.33
2022-07-25T17:11:47.651Z,9.58
2022-07-25T17:14:16.580Z,12.25
2022-07-25T17:16:45.360Z,11.68
2022-07-25T17:19:14.146Z,11.45
2022-07-25T17:21:57.040Z,10.13
2022-07-25T17:24:21.740Z,10.55
2022-07-25T17:26:51.008Z,10.30
2022-07-25T17:29:19.704Z,9.30
2022-07-25T17:31:48.775Z,11.83
2022-07-25T17:34:17.843Z,15.68
2022-07-25T17:36:48.485Z,13.30
2022-07-25T17:39:17.972Z,14.70
2022-07-25T17:41:49.862Z,11.90
2022-07-25T17:44:30.273Z,11.93
2022-07-25T17:47:07.551Z,11.95
2022-07-25T17:49:50.272Z,17.80
2022-07-25T17:52:22.899Z,12.23
2022-07-25T17:55:10.348Z,12.95
2022-07-25T17:57:28.333Z,13.05
2022-07-25T18:00:01.055Z,13.60
2022-07-25T18:02:32.775Z,12.00
2022-07-25T18:05:06.075Z,11.43
2022-07-25T18:07:43.052Z,11.35
2022-07-25T18:10:24.033Z,13.75
2022-07-25T18:13:02.689Z,14.70
2022-07-25T18:15:35.616Z,11.97
2022-07-25T18:18:10.483Z,10.98
2022-07-25T18:20:41.479Z,14.18
2022-07-25T18:23:12.270Z,16.17
2022-07-25T18:25:47.251Z,13.35
2022-07-25T18:28:20.232Z,12.93
2022-07-25T18:30:57.390Z,15.50
2022-07-25T18:33:27.739Z,12.43
2022-07-25T18:35:56.521Z,14.78
2022-07-25T18:38:25.265Z,13.05
2022-07-25T18:41:12.304Z,16.25
2022-07-25T18:43:28.929Z,14.18
2022-07-25T18:46:03.564Z,20.70
2022-07-25T18:48:36.395Z,14.15
2022-07-25T18:51:06.677Z,15.45
2022-07-25T18:53:38.383Z,19.85
2022-07-25T18:56:07.598Z,18.60
2022-07-25T18:58:37.083Z,16.82
2022-07-25T19:01:11.029Z,16.30
2022-07-25T19:03:49.875Z,12.90
2022-07-25T19:06:22.041Z,18.00
2022-07-25T19:08:57.762Z,18.55
2022-07-25T19:11:29.664Z,20.05
2022-07-25T19:13:59.840Z,21.35
2022-07-25T19:16:28.959Z,24.18
2022-07-25T19:19:04.678Z,24.90
2022-07-25T19:21:33.530Z,29.70
2022-07-25T19:24:02.271Z,33.33
2022-07-25T19:26:35.448Z,34.10
2022-07-25T19:29:05.646Z,45.90
2022-07-25T19:31:35.514Z,36.45
2022-07-25T19:34:05.150Z,42.38
2022-07-25T19:36:34.555Z,53.78
2022-07-25T19:39:06.589Z,59.77
2022-07-25T19:41:44.682Z,65.10
2022-07-25T19:44:12.280Z,76.00
2022-07-25T19:46:41.215Z,77.53
2022-07-25T19:49:10.148Z,72.40
2022-07-25T19:51:38.947Z,70.32
2022-07-25T19:54:09.289Z,70.55
2022-07-25T19:56:48.591Z,70.40
2022-07-25T19:59:17.524Z,58.70
2022-07-25T20:01:50.034Z,28.67
2022-07-25T20:04:18.750Z,31.20
2022-07-25T20:06:47.460Z,36.10
2022-07-25T20:09:19.069Z,35.40
2022-07-25T20:11:48.738Z,44.10
2022-07-25T20:14:18.852Z,33.23
2022-07-25T20:16:47.644Z,28.70
2022-07-25T20:19:16.435Z,27.87
2022-07-25T20:21:45.380Z,28.42
2022-07-25T20:24:18.008Z,24.40
2022-07-25T20:26:44.739Z,18.92
2022-07-25T20:29:14.095Z,27.25
2022-07-25T20:31:44.332Z,19.98
2022-07-25T20:34:19.386Z,27.00
2022-07-25T20:36:51.310Z,19.92
2022-07-25T20:39:20.197Z,26.27
2022-07-25T20:41:54.478Z,22.32
2022-07-25T20:44:26.454Z,18.50
2022-07-25T20:46:55.747Z,19.62
2022-07-25T20:49:25.883Z,20.88
2022-07-25T20:51:54.924Z,25.52
2022-07-25T20:54:24.820Z,24.82
2022-07-25T20:56:56.124Z,15.38
2022-07-25T20:59:26.549Z,19.37
2022-07-25T21:02:32.018Z,13.95
2022-07-25T21:05:00.809Z,18.90
2022-07-25T21:07:30.983Z,19.27
2022-07-25T21:10:01.009Z,16.77
2022-07-25T21:12:32.935Z,16.23
2022-07-25T21:15:02.378Z,18.30
2022-07-25T21:17:31.281Z,16.87
2022-07-25T21:20:04.173Z,14.05
2022-07-25T21:22:32.814Z,15.30
2022-07-25T21:25:01.753Z,17.32
2022-07-25T21:27:30.474Z,17.52
2022-07-25T21:29:59.348Z,20.08
2022-07-25T21:32:37.698Z,15.28
2022-07-25T21:35:07.426Z,20.82
2022-07-25T21:37:36.180Z,14.63
2022-07-25T21:40:05.464Z,16.00
2022-07-25T21:42:34.468Z,20.65
2022-07-25T21:45:03.571Z,21.30
2022-07-25T21:47:32.340Z,14.43
2022-07-25T21:50:24.535Z,13.95
2022-07-25T21:52:49.487Z,16.07
2022-07-25T21:55:19.609Z,16.45
2022-07-25T21:57:54.783Z,15.93
2022-07-25T22:00:25.769Z,16.00
2022-07-25T22:02:54.489Z,14.73
2022-07-25T22:05:23.594Z,15.40
2022-07-25T22:07:56.176Z,13.40
2022-07-25T22:10:24.847Z,14.13
2022-07-25T22:12:56.218Z,13.72
2022-07-25T22:15:31.255Z,19.95
2022-07-25T22:18:17.339Z,13.48
2022-07-25T22:20:46.132Z,11.68
2022-07-25T22:23:17.709Z,13.40
2022-07-25T22:25:46.477Z,13.18
2022-07-25T22:28:16.134Z,15.90
2022-07-25T22:33:38.140Z,12.58
2022-07-25T22:36:09.551Z,13.10
2022-07-25T22:38:38.250Z,12.88
2022-07-25T22:41:07.142Z,13.10
2022-07-25T22:43:56.937Z,13.43
2022-07-25T22:46:13.877Z,18.52
2022-07-25T22:48:44.376Z,13.58
2022-07-25T23:14:00.189Z,14.18
2022-07-25T23:36:21.706Z,19.50
2022-07-25T23:38:53.590Z,17.32
2022-07-25T23:41:22.715Z,16.97
2022-07-25T23:44:00.013Z,17.02
2022-07-25T23:46:29.604Z,15.72
2022-07-25T23:49:00.844Z,17.55
2022-07-25T23:51:30.715Z,14.90
2022-07-25T23:54:03.809Z,14.28
2022-07-25T23:56:33.008Z,17.25
2022-07-25T23:59:02.106Z,13.90
